sensor_id;sensor_type;location;lat;lon;timestamp;temperature;humidity
20438;DHT22;17436;50.338;8.810;2022-07-29T00:01:36;21.40;1.00
20438;DHT22;17436;50.338;8.810;2022-07-29T00:04:03;21.40;1.00
20438;DHT22;17436;50.338;8.810;2022-07-29T00:06:32;21.40;1.00
20438;DHT22;17436;50.338;8.810;2022-07-29T00:08:59;21.30;1.00
20438;DHT22;17436;50.338;8.810;2022-07-29T00:11:25;21.20;1.00
20438;DHT22;17436;50.338;8.810;2022-07-29T00:13:52;21.20;1.00
20438;DHT22;17436;50.338;8.810;2022-07-29T00:16:19;21.30;1.00
20438;DHT22;17436;50.338;8.810;2022-07-29T00:18:46;21.20;1.00
20438;DHT22;17436;50.338;8.810;2022-07-29T00:21:13;21.30;1.00
20438;DHT22;17436;50.338;8.810;2022-07-29T00:23:41;21.10;1.00
20438;DHT22;17436;50.338;8.810;2022-07-29T00:26:08;20.90;1.00
20438;DHT22;17436;50.338;8.810;2022-07-29T00:28:35;20.90;1.00
20438;DHT22;17436;50.338;8.810;2022-07-29T00:31:02;20.90;1.00
20438;DHT22;17436;50.338;8.810;2022-07-29T00:33:29;21.00;1.00
20438;DHT22;17436;50.338;8.810;2022-07-29T00:35:58;21.00;1.00
20438;DHT22;17436;50.338;8.810;2022-07-29T00:38:24;21.10;1.00
20438;DHT22;17436;50.338;8.810;2022-07-29T00:40:52;21.20;1.00
20438;DHT22;17436;50.338;8.810;2022-07-29T00:43:18;21.20;1.00
20438;DHT22;17436;50.338;8.810;2022-07-29T00:45:45;21.10;1.00
20438;DHT22;17436;50.338;8.810;2022-07-29T00:48:18;21.20;1.00
20438;DHT22;17436;50.338;8.810;2022-07-29T00:50:46;21.30;1.00
20438;DHT22;17436;50.338;8.810;2022-07-29T00:53:12;21.30;1.00
20438;DHT22;17436;50.338;8.810;2022-07-29T00:55:39;21.30;1.00
20438;DHT22;17436;50.338;8.810;2022-07-29T00:58:09;21.30;1.00
20438;DHT22;17436;50.338;8.810;2022-07-29T01:00:38;21.30;1.00
20438;DHT22;17436;50.338;8.810;2022-07-29T01:03:06;21.30;1.00
20438;DHT22;17436;50.338;8.810;2022-07-29T01:05:33;21.30;1.00
20438;DHT22;17436;50.338;8.810;2022-07-29T01:08:02;21.40;1.00
20438;DHT22;17436;50.338;8.810;2022-07-29T01:10:29;21.50;1.00
20438;DHT22;17436;50.338;8.810;2022-07-29T01:12:58;21.50;1.00
20438;DHT22;17436;50.338;8.810;2022-07-29T01:15:27;21.50;1.00
20438;DHT22;17436;50.338;8.810;2022-07-29T01:17:59;21.30;1.00
20438;DHT22;17436;50.338;8.810;2022-07-29T01:20:37;21.10;1.00
20438;DHT22;17436;50.338;8.810;2022-07-29T01:26:41;20.90;4.40
20438;DHT22;17436;50.338;8.810;2022-07-29T01:29:16;20.70;7.60
20438;DHT22;17436;50.338;8.810;2022-07-29T01:31:47;20.70;11.30
20438;DHT22;17436;50.338;8.810;2022-07-29T01:34:23;20.60;11.20
20438;DHT22;17436;50.338;8.810;2022-07-29T01:36:56;20.50;11.20
20438;DHT22;17436;50.338;8.810;2022-07-29T01:39:29;20.50;13.80
20438;DHT22;17436;50.338;8.810;2022-07-29T01:42:02;20.50;18.10
20438;DHT22;17436;50.338;8.810;2022-07-29T01:44:37;20.40;16.90
20438;DHT22;17436;50.338;8.810;2022-07-29T01:47:11;20.40;14.60
20438;DHT22;17436;50.338;8.810;2022-07-29T01:49:43;20.40;18.40
20438;DHT22;17436;50.338;8.810;2022-07-29T01:52:19;20.20;22.90
20438;DHT22;17436;50.338;8.810;2022-07-29T01:54:50;20.10;24.80
20438;DHT22;17436;50.338;8.810;2022-07-29T01:57:19;20.20;26.00
20438;DHT22;17436;50.338;8.810;2022-07-29T01:59:49;20.20;18.20
20438;DHT22;17436;50.338;8.810;2022-07-29T02:02:18;20.30;18.90
20438;DHT22;17436;50.338;8.810;2022-07-29T02:04:47;20.20;15.30
20438;DHT22;17436;50.338;8.810;2022-07-29T02:07:18;20.30;22.70
20438;DHT22;17436;50.338;8.810;2022-07-29T02:09:46;20.20;21.90
20438;DHT22;17436;50.338;8.810;2022-07-29T02:12:17;19.90;22.80
20438;DHT22;17436;50.338;8.810;2022-07-29T02:14:49;20.00;27.00
20438;DHT22;17436;50.338;8.810;2022-07-29T02:17:21;20.00;27.60
20438;DHT22;17436;50.338;8.810;2022-07-29T02:19:48;20.00;31.80
20438;DHT22;17436;50.338;8.810;2022-07-29T02:22:17;20.10;28.90
20438;DHT22;17436;50.338;8.810;2022-07-29T02:24:45;20.10;30.00
20438;DHT22;17436;50.338;8.810;2022-07-29T02:27:13;20.00;31.80
20438;DHT22;17436;50.338;8.810;2022-07-29T02:29:45;20.00;31.80
20438;DHT22;17436;50.338;8.810;2022-07-29T02:32:16;20.00;33.10
20438;DHT22;17436;50.338;8.810;2022-07-29T02:34:44;20.10;31.00
20438;DHT22;17436;50.338;8.810;2022-07-29T02:37:13;20.00;28.90
20438;DHT22;17436;50.338;8.810;2022-07-29T02:39:42;20.10;28.70
20438;DHT22;17436;50.338;8.810;2022-07-29T02:42:13;20.00;23.50
20438;DHT22;17436;50.338;8.810;2022-07-29T02:44:42;20.00;31.80
20438;DHT22;17436;50.338;8.810;2022-07-29T02:47:16;19.90;32.70
20438;DHT22;17436;50.338;8.810;2022-07-29T02:49:50;19.90;34.70
20438;DHT22;17436;50.338;8.810;2022-07-29T02:52:23;19.80;36.70
20438;DHT22;17436;50.338;8.810;2022-07-29T02:54:54;19.60;37.00
20438;DHT22;17436;50.338;8.810;2022-07-29T02:57:28;19.70;34.70
20438;DHT22;17436;50.338;8.810;2022-07-29T02:59:58;19.60;36.70
20438;DHT22;17436;50.338;8.810;2022-07-29T03:02:34;19.60;36.70
20438;DHT22;17436;50.338;8.810;2022-07-29T03:05:02;19.60;36.00
20438;DHT22;17436;50.338;8.810;2022-07-29T03:07:30;19.60;35.40
20438;DHT22;17436;50.338;8.810;2022-07-29T03:09:58;19.60;36.80
20438;DHT22;17436;50.338;8.810;2022-07-29T03:12:25;19.40;38.60
20438;DHT22;17436;50.338;8.810;2022-07-29T03:14:53;19.40;37.30
20438;DHT22;17436;50.338;8.810;2022-07-29T03:17:21;19.40;36.50
20438;DHT22;17436;50.338;8.810;2022-07-29T03:19:49;19.40;35.40
20438;DHT22;17436;50.338;8.810;2022-07-29T03:22:19;19.40;32.70
20438;DHT22;17436;50.338;8.810;2022-07-29T03:24:46;19.30;34.90
20438;DHT22;17436;50.338;8.810;2022-07-29T03:27:13;19.40;36.60
20438;DHT22;17436;50.338;8.810;2022-07-29T03:29:39;19.30;37.70
20438;DHT22;17436;50.338;8.810;2022-07-29T03:32:07;19.20;40.50
20438;DHT22;17436;50.338;8.810;2022-07-29T03:34:37;19.10;42.40
20438;DHT22;17436;50.338;8.810;2022-07-29T03:37:05;19.20;44.00
20438;DHT22;17436;50.338;8.810;2022-07-29T03:39:36;19.10;39.90
20438;DHT22;17436;50.338;8.810;2022-07-29T03:42:07;19.10;46.60
20438;DHT22;17436;50.338;8.810;2022-07-29T03:44:36;19.10;48.30
20438;DHT22;17436;50.338;8.810;2022-07-29T03:47:04;19.10;48.50
20438;DHT22;17436;50.338;8.810;2022-07-29T03:49:35;19.10;49.10
20438;DHT22;17436;50.338;8.810;2022-07-29T03:52:05;18.90;50.90
20438;DHT22;17436;50.338;8.810;2022-07-29T03:54:32;18.90;50.10
20438;DHT22;17436;50.338;8.810;2022-07-29T03:57:00;19.00;51.70
20438;DHT22;17436;50.338;8.810;2022-07-29T03:59:27;19.00;48.80
20438;DHT22;17436;50.338;8.810;2022-07-29T04:01:57;19.00;49.40
20438;DHT22;17436;50.338;8.810;2022-07-29T04:04:24;19.00;49.00
20438;DHT22;17436;50.338;8.810;2022-07-29T04:06:51;19.00;46.50
20438;DHT22;17436;50.338;8.810;2022-07-29T04:09:19;18.90;43.30
20438;DHT22;17436;50.338;8.810;2022-07-29T04:11:46;18.90;42.80
20438;DHT22;17436;50.338;8.810;2022-07-29T04:14:14;18.60;46.50
20438;DHT22;17436;50.338;8.810;2022-07-29T04:16:41;18.70;44.90
20438;DHT22;17436;50.338;8.810;2022-07-29T04:19:08;18.70;49.00
20438;DHT22;17436;50.338;8.810;2022-07-29T04:21:37;18.70;45.70
20438;DHT22;17436;50.338;8.810;2022-07-29T04:24:05;18.80;48.10
20438;DHT22;17436;50.338;8.810;2022-07-29T04:26:34;18.90;46.60
20438;DHT22;17436;50.338;8.810;2022-07-29T04:29:01;19.10;48.80
20438;DHT22;17436;50.338;8.810;2022-07-29T04:31:28;19.20;49.40
20438;DHT22;17436;50.338;8.810;2022-07-29T04:33:55;19.20;48.60
20438;DHT22;17436;50.338;8.810;2022-07-29T04:36:21;19.20;48.80
20438;DHT22;17436;50.338;8.810;2022-07-29T04:38:48;19.30;48.60
20438;DHT22;17436;50.338;8.810;2022-07-29T04:41:15;19.20;52.30
20438;DHT22;17436;50.338;8.810;2022-07-29T04:43:43;19.10;47.10
20438;DHT22;17436;50.338;8.810;2022-07-29T04:46:16;19.00;46.40
20438;DHT22;17436;50.338;8.810;2022-07-29T04:48:45;19.00;44.00
20438;DHT22;17436;50.338;8.810;2022-07-29T04:51:12;19.00;38.60
20438;DHT22;17436;50.338;8.810;2022-07-29T04:53:38;19.10;36.90
20438;DHT22;17436;50.338;8.810;2022-07-29T04:56:06;19.10;37.30
20438;DHT22;17436;50.338;8.810;2022-07-29T04:58:34;19.20;31.00
20438;DHT22;17436;50.338;8.810;2022-07-29T05:01:02;19.20;34.30
20438;DHT22;17436;50.338;8.810;2022-07-29T05:03:29;19.10;40.30
20438;DHT22;17436;50.338;8.810;2022-07-29T05:05:56;19.00;42.10
20438;DHT22;17436;50.338;8.810;2022-07-29T05:08:23;18.90;49.00
20438;DHT22;17436;50.338;8.810;2022-07-29T05:10:49;18.90;49.00
20438;DHT22;17436;50.338;8.810;2022-07-29T05:13:16;18.90;55.00
20438;DHT22;17436;50.338;8.810;2022-07-29T05:15:43;18.90;54.10
20438;DHT22;17436;50.338;8.810;2022-07-29T05:18:15;18.80;54.30
20438;DHT22;17436;50.338;8.810;2022-07-29T05:20:42;18.80;54.00
20438;DHT22;17436;50.338;8.810;2022-07-29T05:23:09;18.80;37.60
20438;DHT22;17436;50.338;8.810;2022-07-29T05:25:38;18.90;40.10
20438;DHT22;17436;50.338;8.810;2022-07-29T05:28:05;19.00;34.80
20438;DHT22;17436;50.338;8.810;2022-07-29T05:30:31;19.00;34.00
20438;DHT22;17436;50.338;8.810;2022-07-29T05:32:58;19.10;41.20
20438;DHT22;17436;50.338;8.810;2022-07-29T05:35:26;19.00;36.70
20438;DHT22;17436;50.338;8.810;2022-07-29T05:37:53;19.50;34.00
20438;DHT22;17436;50.338;8.810;2022-07-29T05:40:21;19.80;27.30
20438;DHT22;17436;50.338;8.810;2022-07-29T05:42:48;19.70;35.50
20438;DHT22;17436;50.338;8.810;2022-07-29T05:45:14;19.60;37.10
20438;DHT22;17436;50.338;8.810;2022-07-29T05:47:41;19.50;42.00
20438;DHT22;17436;50.338;8.810;2022-07-29T05:50:09;19.50;41.80
20438;DHT22;17436;50.338;8.810;2022-07-29T05:52:40;19.50;41.30
20438;DHT22;17436;50.338;8.810;2022-07-29T05:55:07;19.40;40.30
20438;DHT22;17436;50.338;8.810;2022-07-29T05:57:34;19.40;43.60
20438;DHT22;17436;50.338;8.810;2022-07-29T06:00:02;19.50;48.40
20438;DHT22;17436;50.338;8.810;2022-07-29T06:02:30;19.50;52.30
20438;DHT22;17436;50.338;8.810;2022-07-29T06:04:57;19.60;45.40
20438;DHT22;17436;50.338;8.810;2022-07-29T06:07:24;19.50;51.80
20438;DHT22;17436;50.338;8.810;2022-07-29T06:09:52;19.50;49.60
20438;DHT22;17436;50.338;8.810;2022-07-29T06:12:19;19.70;51.80
20438;DHT22;17436;50.338;8.810;2022-07-29T06:14:46;20.30;47.90
20438;DHT22;17436;50.338;8.810;2022-07-29T06:17:12;20.60;43.60
20438;DHT22;17436;50.338;8.810;2022-07-29T06:19:39;20.80;39.70
20438;DHT22;17436;50.338;8.810;2022-07-29T06:22:06;21.10;37.80
20438;DHT22;17436;50.338;8.810;2022-07-29T06:24:33;21.20;38.90
20438;DHT22;17436;50.338;8.810;2022-07-29T06:27:01;21.40;38.20
20438;DHT22;17436;50.338;8.810;2022-07-29T06:29:28;21.40;38.10
20438;DHT22;17436;50.338;8.810;2022-07-29T06:31:54;21.60;31.40
20438;DHT22;17436;50.338;8.810;2022-07-29T06:34:21;21.40;30.80
20438;DHT22;17436;50.338;8.810;2022-07-29T06:36:47;21.70;33.40
20438;DHT22;17436;50.338;8.810;2022-07-29T06:39:15;21.90;33.60
20438;DHT22;17436;50.338;8.810;2022-07-29T06:41:41;21.60;34.70
20438;DHT22;17436;50.338;8.810;2022-07-29T06:44:11;21.90;32.80
20438;DHT22;17436;50.338;8.810;2022-07-29T06:46:39;22.10;27.00
20438;DHT22;17436;50.338;8.810;2022-07-29T06:49:06;22.30;25.00
20438;DHT22;17436;50.338;8.810;2022-07-29T06:51:33;22.40;24.80
20438;DHT22;17436;50.338;8.810;2022-07-29T06:54:00;22.50;24.00
20438;DHT22;17436;50.338;8.810;2022-07-29T06:56:27;22.60;24.70
20438;DHT22;17436;50.338;8.810;2022-07-29T06:58:54;22.60;23.20
20438;DHT22;17436;50.338;8.810;2022-07-29T07:01:22;22.70;21.60
20438;DHT22;17436;50.338;8.810;2022-07-29T07:03:49;22.90;22.10
20438;DHT22;17436;50.338;8.810;2022-07-29T07:06:19;23.10;23.60
20438;DHT22;17436;50.338;8.810;2022-07-29T07:08:45;23.30;23.10
20438;DHT22;17436;50.338;8.810;2022-07-29T07:11:13;23.40;20.50
20438;DHT22;17436;50.338;8.810;2022-07-29T07:13:40;23.60;21.40
20438;DHT22;17436;50.338;8.810;2022-07-29T07:16:07;23.70;18.80
20438;DHT22;17436;50.338;8.810;2022-07-29T07:18:35;23.80;20.70
20438;DHT22;17436;50.338;8.810;2022-07-29T07:21:01;23.70;18.90
20438;DHT22;17436;50.338;8.810;2022-07-29T07:23:30;23.90;17.50
20438;DHT22;17436;50.338;8.810;2022-07-29T07:25:57;24.00;18.00
20438;DHT22;17436;50.338;8.810;2022-07-29T07:28:23;24.30;17.30
20438;DHT22;17436;50.338;8.810;2022-07-29T07:30:50;24.30;14.00
20438;DHT22;17436;50.338;8.810;2022-07-29T07:33:17;24.50;13.10
20438;DHT22;17436;50.338;8.810;2022-07-29T07:35:45;24.10;14.80
20438;DHT22;17436;50.338;8.810;2022-07-29T07:38:16;24.40;14.00
20438;DHT22;17436;50.338;8.810;2022-07-29T07:40:44;24.60;14.20
20438;DHT22;17436;50.338;8.810;2022-07-29T07:43:11;24.70;14.30
20438;DHT22;17436;50.338;8.810;2022-07-29T07:45:50;24.80;9.90
20438;DHT22;17436;50.338;8.810;2022-07-29T07:48:18;25.00;11.40
20438;DHT22;17436;50.338;8.810;2022-07-29T07:50:46;25.10;9.00
20438;DHT22;17436;50.338;8.810;2022-07-29T07:53:14;25.20;9.70
20438;DHT22;17436;50.338;8.810;2022-07-29T07:55:42;25.00;9.70
20438;DHT22;17436;50.338;8.810;2022-07-29T07:58:09;25.30;9.30
20438;DHT22;17436;50.338;8.810;2022-07-29T08:00:36;25.40;3.90
20438;DHT22;17436;50.338;8.810;2022-07-29T08:03:03;25.80;3.70
20438;DHT22;17436;50.338;8.810;2022-07-29T08:05:30;26.00;1.70
20438;DHT22;17436;50.338;8.810;2022-07-29T08:07:58;26.10;2.40
20438;DHT22;17436;50.338;8.810;2022-07-29T08:10:24;25.70;3.10
20438;DHT22;17436;50.338;8.810;2022-07-29T08:13:09;25.70;2.90
20438;DHT22;17436;50.338;8.810;2022-07-29T08:15:39;25.40;3.80
20438;DHT22;17436;50.338;8.810;2022-07-29T08:18:07;29.10;1.00
20438;DHT22;17436;50.338;8.810;2022-07-29T08:20:34;32.90;1.00
20438;DHT22;17436;50.338;8.810;2022-07-29T08:23:03;34.70;1.00
20438;DHT22;17436;50.338;8.810;2022-07-29T08:25:31;33.60;1.00
20438;DHT22;17436;50.338;8.810;2022-07-29T08:27:59;30.70;1.00
20438;DHT22;17436;50.338;8.810;2022-07-29T08:30:26;28.40;1.00
20438;DHT22;17436;50.338;8.810;2022-07-29T08:32:53;27.00;1.00
20438;DHT22;17436;50.338;8.810;2022-07-29T08:35:21;26.00;1.00
20438;DHT22;17436;50.338;8.810;2022-07-29T08:37:47;25.90;1.00
20438;DHT22;17436;50.338;8.810;2022-07-29T08:40:17;25.80;1.00
20438;DHT22;17436;50.338;8.810;2022-07-29T08:42:44;25.90;1.00
20438;DHT22;17436;50.338;8.810;2022-07-29T08:45:11;25.90;1.00
20438;DHT22;17436;50.338;8.810;2022-07-29T08:47:38;25.90;1.00
20438;DHT22;17436;50.338;8.810;2022-07-29T08:50:07;25.80;1.00
20438;DHT22;17436;50.338;8.810;2022-07-29T08:52:36;26.00;1.00
20438;DHT22;17436;50.338;8.810;2022-07-29T08:55:05;26.00;1.00
20438;DHT22;17436;50.338;8.810;2022-07-29T08:57:34;26.10;1.00
20438;DHT22;17436;50.338;8.810;2022-07-29T09:00:05;26.10;1.00
20438;DHT22;17436;50.338;8.810;2022-07-29T09:02:36;26.10;1.00
20438;DHT22;17436;50.338;8.810;2022-07-29T09:05:06;26.00;1.00
20438;DHT22;17436;50.338;8.810;2022-07-29T09:07:33;25.80;1.00
20438;DHT22;17436;50.338;8.810;2022-07-29T09:10:01;25.90;1.00
20438;DHT22;17436;50.338;8.810;2022-07-29T09:12:29;25.90;1.00
20438;DHT22;17436;50.338;8.810;2022-07-29T09:14:57;26.00;1.00
20438;DHT22;17436;50.338;8.810;2022-07-29T09:17:40;25.90;1.00
20438;DHT22;17436;50.338;8.810;2022-07-29T09:20:12;26.10;1.00
20438;DHT22;17436;50.338;8.810;2022-07-29T09:22:40;26.10;1.00
20438;DHT22;17436;50.338;8.810;2022-07-29T09:25:07;26.20;1.00
20438;DHT22;17436;50.338;8.810;2022-07-29T09:27:34;26.20;1.00
20438;DHT22;17436;50.338;8.810;2022-07-29T09:30:05;26.10;1.00
20438;DHT22;17436;50.338;8.810;2022-07-29T09:32:33;26.20;1.00
20438;DHT22;17436;50.338;8.810;2022-07-29T09:35:19;26.30;1.00
20438;DHT22;17436;50.338;8.810;2022-07-29T09:37:46;26.20;1.00
20438;DHT22;17436;50.338;8.810;2022-07-29T09:40:15;26.30;1.00
20438;DHT22;17436;50.338;8.810;2022-07-29T09:42:45;26.50;1.00
20438;DHT22;17436;50.338;8.810;2022-07-29T09:45:26;26.50;1.00
20438;DHT22;17436;50.338;8.810;2022-07-29T09:47:53;26.50;1.00
20438;DHT22;17436;50.338;8.810;2022-07-29T09:50:35;26.50;1.00
20438;DHT22;17436;50.338;8.810;2022-07-29T09:53:01;26.40;1.00
20438;DHT22;17436;50.338;8.810;2022-07-29T09:55:28;26.60;1.00
20438;DHT22;17436;50.338;8.810;2022-07-29T09:58:15;26.40;1.00
20438;DHT22;17436;50.338;8.810;2022-07-29T10:00:46;26.40;1.00
20438;DHT22;17436;50.338;8.810;2022-07-29T10:03:13;26.40;1.00
20438;DHT22;17436;50.338;8.810;2022-07-29T10:05:41;26.30;1.00
20438;DHT22;17436;50.338;8.810;2022-07-29T10:08:12;26.00;1.00
20438;DHT22;17436;50.338;8.810;2022-07-29T10:10:41;26.00;1.00
20438;DHT22;17436;50.338;8.810;2022-07-29T10:13:09;25.90;1.00
20438;DHT22;17436;50.338;8.810;2022-07-29T10:15:38;26.10;1.00
20438;DHT22;17436;50.338;8.810;2022-07-29T10:18:08;26.40;1.00
20438;DHT22;17436;50.338;8.810;2022-07-29T10:20:37;26.70;1.00
20438;DHT22;17436;50.338;8.810;2022-07-29T10:23:04;26.80;1.00
20438;DHT22;17436;50.338;8.810;2022-07-29T10:25:31;26.90;1.00
20438;DHT22;17436;50.338;8.810;2022-07-29T10:27:58;27.00;1.00
20438;DHT22;17436;50.338;8.810;2022-07-29T10:30:26;27.10;1.00
20438;DHT22;17436;50.338;8.810;2022-07-29T10:33:17;27.30;1.00
20438;DHT22;17436;50.338;8.810;2022-07-29T10:36:02;27.40;1.00
20438;DHT22;17436;50.338;8.810;2022-07-29T10:38:51;27.40;1.00
20438;DHT22;17436;50.338;8.810;2022-07-29T10:41:33;27.50;1.00
20438;DHT22;17436;50.338;8.810;2022-07-29T10:44:05;27.50;1.00
20438;DHT22;17436;50.338;8.810;2022-07-29T10:46:35;27.50;1.00
20438;DHT22;17436;50.338;8.810;2022-07-29T10:49:11;27.30;1.00
20438;DHT22;17436;50.338;8.810;2022-07-29T10:51:55;26.90;1.00
20438;DHT22;17436;50.338;8.810;2022-07-29T10:54:44;27.10;1.00
20438;DHT22;17436;50.338;8.810;2022-07-29T10:57:18;27.30;1.00
20438;DHT22;17436;50.338;8.810;2022-07-29T11:02:51;27.30;1.00
20438;DHT22;17436;50.338;8.810;2022-07-29T11:05:22;27.50;1.00
20438;DHT22;17436;50.338;8.810;2022-07-29T11:08:18;27.70;1.00
20438;DHT22;17436;50.338;8.810;2022-07-29T11:10:47;27.80;1.00
20438;DHT22;17436;50.338;8.810;2022-07-29T11:13:45;27.80;1.00
20438;DHT22;17436;50.338;8.810;2022-07-29T11:19:22;27.40;1.00
20438;DHT22;17436;50.338;8.810;2022-07-29T11:21:50;27.30;1.00
20438;DHT22;17436;50.338;8.810;2022-07-29T11:24:20;27.30;1.00
20438;DHT22;17436;50.338;8.810;2022-07-29T11:27:10;27.50;1.00
20438;DHT22;17436;50.338;8.810;2022-07-29T11:29:47;27.60;1.00
20438;DHT22;17436;50.338;8.810;2022-07-29T11:32:16;27.40;1.00
20438;DHT22;17436;50.338;8.810;2022-07-29T11:34:46;27.50;1.00
20438;DHT22;17436;50.338;8.810;2022-07-29T11:37:20;27.50;1.00
20438;DHT22;17436;50.338;8.810;2022-07-29T11:40:08;27.50;1.00
20438;DHT22;17436;50.338;8.810;2022-07-29T11:42:42;27.40;1.00
20438;DHT22;17436;50.338;8.810;2022-07-29T11:45:11;27.40;1.00
20438;DHT22;17436;50.338;8.810;2022-07-29T11:47:48;27.40;1.00
20438;DHT22;17436;50.338;8.810;2022-07-29T11:50:17;27.30;1.00
20438;DHT22;17436;50.338;8.810;2022-07-29T11:52:47;27.30;1.00
20438;DHT22;17436;50.338;8.810;2022-07-29T11:55:16;27.40;1.00
20438;DHT22;17436;50.338;8.810;2022-07-29T11:57:46;27.40;1.00
20438;DHT22;17436;50.338;8.810;2022-07-29T12:00:22;27.40;1.00
20438;DHT22;17436;50.338;8.810;2022-07-29T12:02:49;27.40;1.00
20438;DHT22;17436;50.338;8.810;2022-07-29T12:05:16;27.40;1.00
20438;DHT22;17436;50.338;8.810;2022-07-29T12:07:43;27.70;1.00
20438;DHT22;17436;50.338;8.810;2022-07-29T12:10:11;27.70;1.00
20438;DHT22;17436;50.338;8.810;2022-07-29T12:12:42;27.80;1.00
20438;DHT22;17436;50.338;8.810;2022-07-29T12:15:16;28.00;1.00
20438;DHT22;17436;50.338;8.810;2022-07-29T12:17:46;28.20;1.00
20438;DHT22;17436;50.338;8.810;2022-07-29T12:20:21;28.20;1.00
20438;DHT22;17436;50.338;8.810;2022-07-29T12:22:48;27.90;1.00
20438;DHT22;17436;50.338;8.810;2022-07-29T12:25:17;27.90;1.00
20438;DHT22;17436;50.338;8.810;2022-07-29T12:27:44;27.80;1.00
20438;DHT22;17436;50.338;8.810;2022-07-29T12:30:13;27.80;1.00
20438;DHT22;17436;50.338;8.810;2022-07-29T12:32:42;27.60;1.00
20438;DHT22;17436;50.338;8.810;2022-07-29T12:35:12;27.80;1.00
20438;DHT22;17436;50.338;8.810;2022-07-29T12:37:43;27.80;1.00
20438;DHT22;17436;50.338;8.810;2022-07-29T12:40:12;27.60;1.00
20438;DHT22;17436;50.338;8.810;2022-07-29T12:42:41;27.40;1.00
20438;DHT22;17436;50.338;8.810;2022-07-29T12:45:10;27.60;1.00
20438;DHT22;17436;50.338;8.810;2022-07-29T12:47:51;27.70;1.00
20438;DHT22;17436;50.338;8.810;2022-07-29T12:50:19;27.70;1.00
20438;DHT22;17436;50.338;8.810;2022-07-29T12:52:47;27.70;1.00
20438;DHT22;17436;50.338;8.810;2022-07-29T12:55:14;27.70;1.00
20438;DHT22;17436;50.338;8.810;2022-07-29T12:57:48;27.60;1.00
20438;DHT22;17436;50.338;8.810;2022-07-29T13:00:22;27.60;1.00
20438;DHT22;17436;50.338;8.810;2022-07-29T13:02:55;27.50;1.00
20438;DHT22;17436;50.338;8.810;2022-07-29T13:05:22;27.50;1.00
20438;DHT22;17436;50.338;8.810;2022-07-29T13:07:49;27.50;1.00
20438;DHT22;17436;50.338;8.810;2022-07-29T13:10:18;27.30;1.00
20438;DHT22;17436;50.338;8.810;2022-07-29T13:13:07;27.20;1.00
20438;DHT22;17436;50.338;8.810;2022-07-29T13:15:35;27.20;1.00
20438;DHT22;17436;50.338;8.810;2022-07-29T13:18:02;27.30;1.00
20438;DHT22;17436;50.338;8.810;2022-07-29T13:20:29;27.40;1.00
20438;DHT22;17436;50.338;8.810;2022-07-29T13:22:57;27.30;1.00
20438;DHT22;17436;50.338;8.810;2022-07-29T13:25:24;27.40;1.00
20438;DHT22;17436;50.338;8.810;2022-07-29T13:27:51;27.20;1.00
20438;DHT22;17436;50.338;8.810;2022-07-29T13:30:22;27.20;1.00
20438;DHT22;17436;50.338;8.810;2022-07-29T13:32:49;27.50;1.00
20438;DHT22;17436;50.338;8.810;2022-07-29T13:35:16;27.40;1.00
20438;DHT22;17436;50.338;8.810;2022-07-29T13:37:47;27.50;1.00
20438;DHT22;17436;50.338;8.810;2022-07-29T13:40:13;27.40;1.00
20438;DHT22;17436;50.338;8.810;2022-07-29T13:42:42;27.40;1.00
20438;DHT22;17436;50.338;8.810;2022-07-29T13:45:10;27.40;1.00
20438;DHT22;17436;50.338;8.810;2022-07-29T13:47:38;27.30;1.00
20438;DHT22;17436;50.338;8.810;2022-07-29T13:50:07;27.30;1.00
20438;DHT22;17436;50.338;8.810;2022-07-29T13:52:36;27.30;1.00
20438;DHT22;17436;50.338;8.810;2022-07-29T13:55:05;27.30;1.00
20438;DHT22;17436;50.338;8.810;2022-07-29T13:57:32;27.30;1.00
20438;DHT22;17436;50.338;8.810;2022-07-29T13:59:59;27.40;1.00
20438;DHT22;17436;50.338;8.810;2022-07-29T14:02:26;27.50;1.00
20438;DHT22;17436;50.338;8.810;2022-07-29T14:04:54;27.50;1.00
20438;DHT22;17436;50.338;8.810;2022-07-29T14:07:21;27.40;1.00
20438;DHT22;17436;50.338;8.810;2022-07-29T14:09:47;27.40;1.00
20438;DHT22;17436;50.338;8.810;2022-07-29T14:12:15;27.40;1.00
20438;DHT22;17436;50.338;8.810;2022-07-29T14:14:42;27.30;1.00
20438;DHT22;17436;50.338;8.810;2022-07-29T14:17:08;27.30;1.00
20438;DHT22;17436;50.338;8.810;2022-07-29T14:19:36;27.20;1.00
20438;DHT22;17436;50.338;8.810;2022-07-29T14:22:06;27.30;1.00
20438;DHT22;17436;50.338;8.810;2022-07-29T14:24:33;27.30;1.00
20438;DHT22;17436;50.338;8.810;2022-07-29T14:27:00;27.30;1.00
20438;DHT22;17436;50.338;8.810;2022-07-29T14:29:27;27.40;1.00
20438;DHT22;17436;50.338;8.810;2022-07-29T14:31:54;27.30;1.00
20438;DHT22;17436;50.338;8.810;2022-07-29T14:34:21;27.30;1.00
20438;DHT22;17436;50.338;8.810;2022-07-29T14:36:47;27.30;1.00
20438;DHT22;17436;50.338;8.810;2022-07-29T14:39:15;27.30;1.00
20438;DHT22;17436;50.338;8.810;2022-07-29T14:41:42;27.30;1.00
20438;DHT22;17436;50.338;8.810;2022-07-29T14:44:09;27.30;1.00
20438;DHT22;17436;50.338;8.810;2022-07-29T14:46:36;27.30;1.00
20438;DHT22;17436;50.338;8.810;2022-07-29T14:49:03;27.30;1.00
20438;DHT22;17436;50.338;8.810;2022-07-29T14:51:29;27.40;1.00
20438;DHT22;17436;50.338;8.810;2022-07-29T14:53:56;27.30;1.00
20438;DHT22;17436;50.338;8.810;2022-07-29T14:56:25;27.20;1.00
20438;DHT22;17436;50.338;8.810;2022-07-29T14:58:52;27.10;1.00
20438;DHT22;17436;50.338;8.810;2022-07-29T15:01:18;27.10;1.00
20438;DHT22;17436;50.338;8.810;2022-07-29T15:03:45;27.00;1.00
20438;DHT22;17436;50.338;8.810;2022-07-29T15:06:16;27.00;1.00
20438;DHT22;17436;50.338;8.810;2022-07-29T15:08:46;26.90;1.00
20438;DHT22;17436;50.338;8.810;2022-07-29T15:11:13;26.70;1.00
20438;DHT22;17436;50.338;8.810;2022-07-29T15:13:41;26.50;1.00
20438;DHT22;17436;50.338;8.810;2022-07-29T15:16:08;26.40;1.00
20438;DHT22;17436;50.338;8.810;2022-07-29T15:18:35;26.30;1.00
20438;DHT22;17436;50.338;8.810;2022-07-29T15:21:03;26.30;1.00
20438;DHT22;17436;50.338;8.810;2022-07-29T15:23:32;26.30;1.00
20438;DHT22;17436;50.338;8.810;2022-07-29T15:25:58;26.30;1.00
20438;DHT22;17436;50.338;8.810;2022-07-29T15:28:26;26.10;1.00
20438;DHT22;17436;50.338;8.810;2022-07-29T15:30:54;26.10;1.00
20438;DHT22;17436;50.338;8.810;2022-07-29T15:33:20;26.20;1.00
20438;DHT22;17436;50.338;8.810;2022-07-29T15:35:47;26.20;1.00
20438;DHT22;17436;50.338;8.810;2022-07-29T15:38:16;26.20;1.00
20438;DHT22;17436;50.338;8.810;2022-07-29T15:40:44;26.30;1.00
20438;DHT22;17436;50.338;8.810;2022-07-29T15:43:11;26.30;1.00
20438;DHT22;17436;50.338;8.810;2022-07-29T15:45:39;26.00;1.00
20438;DHT22;17436;50.338;8.810;2022-07-29T15:48:09;25.90;1.80
20438;DHT22;17436;50.338;8.810;2022-07-29T15:50:36;25.80;1.20
20438;DHT22;17436;50.338;8.810;2022-07-29T15:53:02;25.90;1.00
20438;DHT22;17436;50.338;8.810;2022-07-29T15:55:29;25.90;1.00
20438;DHT22;17436;50.338;8.810;2022-07-29T15:57:56;26.00;1.00
20438;DHT22;17436;50.338;8.810;2022-07-29T16:00:22;26.00;1.00
20438;DHT22;17436;50.338;8.810;2022-07-29T16:02:49;26.00;1.00